createdAt,value
2023-10-12T00:03:18.934Z,14.2
2023-10-12T00:09:13.472Z,15.4
2023-10-12T00:15:06.301Z,14.8
2023-10-12T00:21:01.341Z,13.1
2023-10-12T00:26:54.049Z,13.2
2023-10-12T00:32:45.196Z,15.4
2023-10-12T00:38:36.222Z,14.9
2023-10-12T00:44:30.213Z,13.3
2023-10-12T00:50:24.894Z,14.5
2023-10-12T00:56:18.620Z,15.3
2023-10-12T01:02:10.476Z,14.3
2023-10-12T01:08:02.904Z,13.7
2023-10-12T01:13:55.508Z,15.3
2023-10-12T01:19:48.511Z,13.5
2023-10-12T01:25:41.183Z,15.9
2023-10-12T01:31:34.507Z,11.8
2023-10-12T01:37:26.682Z,11.5
2023-10-12T01:43:19.238Z,12.8
2023-10-12T01:49:11.786Z,12.9
2023-10-12T01:55:04.978Z,12.2
2023-10-12T02:00:59.039Z,14.6
2023-10-12T02:06:53.034Z,16.6
2023-10-12T02:12:47.163Z,11
2023-10-12T02:18:41.366Z,15.2
2023-10-12T02:24:34.252Z,15
2023-10-12T02:30:29.323Z,10.2
2023-10-12T02:36:21.857Z,14.7
2023-10-12T02:42:15.071Z,11.8
2023-10-12T02:48:06.824Z,12.7
2023-10-12T02:53:57.603Z,10.2
2023-10-12T02:59:50.282Z,12.5
2023-10-12T03:05:41.818Z,16
2023-10-12T03:11:33.952Z,9.4
2023-10-12T03:17:28.448Z,13.9
2023-10-12T03:23:21.213Z,11.7
2023-10-12T03:29:14.977Z,12.8
2023-10-12T03:35:06.840Z,13
2023-10-12T03:41:01.690Z,14.2
2023-10-12T03:46:55.633Z,14
2023-10-12T03:52:48.746Z,12.9
2023-10-12T03:58:43.203Z,13.6
2023-10-12T04:04:36.265Z,12.8
2023-10-12T04:10:30.748Z,13.4
2023-10-12T04:16:23.715Z,11.6
2023-10-12T04:22:16.507Z,13.5
2023-10-12T04:28:09.204Z,11.9
2023-10-12T04:33:59.832Z,13.9
2023-10-12T04:39:51.235Z,14.4
2023-10-12T04:45:45.352Z,14.3
2023-10-12T04:51:37.630Z,15.1
2023-10-12T04:57:33.145Z,13.1
2023-10-12T05:03:29.422Z,14.5
2023-10-12T05:09:22.053Z,18.1
2023-10-12T05:15:17.496Z,15.6
2023-10-12T05:21:13.269Z,17.6
2023-10-12T05:27:07.616Z,14.3
2023-10-12T05:33:04.086Z,15.4
2023-10-12T05:38:57.688Z,15.6
2023-10-12T05:44:49.848Z,15.4
2023-10-12T05:50:42.903Z,19.7
2023-10-12T05:56:37.027Z,17.4
2023-10-12T06:02:30.562Z,17.7
2023-10-12T06:08:23.611Z,15.8
2023-10-12T06:14:16.489Z,15.2
2023-10-12T06:20:15.138Z,17
2023-10-12T06:26:16.555Z,18.6
2023-10-12T06:32:11.253Z,16.4
2023-10-12T06:38:04.379Z,16.4
2023-10-12T06:43:57.344Z,16.5
2023-10-12T06:49:50.446Z,16.7
2023-10-12T06:55:43.320Z,16.2
2023-10-12T07:01:38.575Z,16.4
2023-10-12T07:07:32.424Z,16.9
2023-10-12T07:13:26.089Z,17
2023-10-12T07:19:22.331Z,17.5
2023-10-12T07:25:15.120Z,20.5
2023-10-12T07:31:09.916Z,16
2023-10-12T07:37:05.081Z,18.5
2023-10-12T07:42:57.689Z,16.4
2023-10-12T07:48:50.251Z,15.7
2023-10-12T07:54:43.282Z,17.4
2023-10-12T08:00:38.057Z,19.1
2023-10-12T08:06:31.959Z,15.6
2023-10-12T08:12:25.685Z,17.7
2023-10-12T08:18:20.602Z,19.3
2023-10-12T08:24:15.061Z,19.1
2023-10-12T08:30:08.139Z,15.9
2023-10-12T08:35:58.161Z,18
2023-10-12T08:41:50.748Z,20.4
2023-10-12T08:47:42.144Z,20.2
2023-10-12T08:53:35.929Z,18.6
2023-10-12T08:59:30.179Z,20.1
2023-10-12T09:05:25.607Z,23
2023-10-12T09:11:23.415Z,22.3
2023-10-12T09:17:23.546Z,22.4
2023-10-12T09:23:21.379Z,18.3
2023-10-12T09:29:13.519Z,22.3
2023-10-12T09:35:06.098Z,19
2023-10-12T09:41:07.363Z,19.4
2023-10-12T09:47:03.819Z,20.9
2023-10-12T09:52:56.630Z,20.6
2023-10-12T09:58:51.007Z,21.1
2023-10-12T10:04:44.016Z,21.4
2023-10-12T10:10:36.589Z,23.7
2023-10-12T10:16:29.674Z,21.5
2023-10-12T10:22:25.088Z,18.7
2023-10-12T10:28:19.925Z,22.1
2023-10-12T10:34:14.688Z,21.6
2023-10-12T10:40:07.250Z,23.3
2023-10-12T10:46:00.355Z,25.3
2023-10-12T10:51:53.143Z,21.7
2023-10-12T10:57:47.619Z,23.5
2023-10-12T11:03:41.881Z,23.2
2023-10-12T11:09:35.951Z,20.7
2023-10-12T11:15:28.959Z,20.2
2023-10-12T11:21:23.239Z,23.4
2023-10-12T11:27:16.508Z,21.7
2023-10-12T11:33:11.211Z,19
2023-10-12T11:39:05.145Z,23.2
2023-10-12T11:44:58.552Z,20.6
2023-10-12T11:50:50.322Z,17.4
2023-10-12T11:56:43.211Z,17.8
2023-10-12T12:02:38.538Z,17
2023-10-12T12:08:32.278Z,15.7
2023-10-12T12:14:26.237Z,16.4
2023-10-12T12:20:19.999Z,14.7
2023-10-12T12:26:11.965Z,16.3
2023-10-12T12:32:04.395Z,16
2023-10-12T12:37:54.985Z,13.6
2023-10-12T12:43:48.327Z,15.5
2023-10-12T12:49:47.922Z,14.2
2023-10-12T12:55:41.278Z,15.9
2023-10-12T13:01:34.205Z,19
2023-10-12T13:07:28.744Z,14.4
2023-10-12T13:13:23.611Z,15.7
2023-10-12T13:19:16.042Z,16.2
2023-10-12T13:25:08.616Z,15.6
2023-10-12T13:31:01.651Z,19.9
2023-10-12T13:36:55.742Z,19.1
2023-10-12T13:42:49.689Z,17.3
2023-10-12T13:48:44.696Z,16.2
2023-10-12T13:54:41.089Z,17
2023-10-12T14:00:35.724Z,15.6
2023-10-12T14:06:32.623Z,17
2023-10-12T14:12:27.968Z,18
2023-10-12T14:18:19.326Z,20.5
2023-10-12T14:24:13.799Z,14.9
2023-10-12T14:30:07.841Z,16.4
2023-10-12T14:36:00.011Z,16.8
2023-10-12T14:41:54.530Z,15.9
2023-10-12T14:47:47.917Z,14.1
2023-10-12T14:53:40.234Z,15.6
2023-10-12T14:59:32.059Z,16.1
2023-10-12T15:05:24.515Z,19.1
2023-10-12T15:11:19.243Z,18.1
2023-10-12T15:17:11.937Z,18.1
2023-10-12T15:23:03.784Z,18.8
2023-10-12T15:28:58.607Z,14
2023-10-12T15:34:50.322Z,18.7
2023-10-12T15:40:44.739Z,14.4
2023-10-12T15:46:39.789Z,13.9
2023-10-12T15:52:31.860Z,14.8
2023-10-12T15:58:26.152Z,12.4
2023-10-12T16:04:18.622Z,15
2023-10-12T16:10:09.343Z,13.5
2023-10-12T16:16:00.980Z,15.1
2023-10-12T16:21:53.603Z,15.9
2023-10-12T16:27:43.937Z,13.8
2023-10-12T16:33:38.269Z,14.7
2023-10-12T16:39:30.519Z,15.7
2023-10-12T16:45:22.626Z,15.8
2023-10-12T16:51:17.173Z,16
2023-10-12T16:57:11.184Z,15.6
2023-10-12T17:03:03.534Z,16.1
2023-10-12T17:08:58.046Z,16.3
2023-10-12T17:14:50.642Z,17.6
2023-10-12T17:20:43.461Z,15
2023-10-12T17:26:36.208Z,18.1
2023-10-12T17:32:28.627Z,14.1
2023-10-12T17:38:23.029Z,13
2023-10-12T17:44:16.786Z,13.2
2023-10-12T17:50:11.223Z,15.5
2023-10-12T17:56:05.776Z,13.8
2023-10-12T18:01:58.287Z,15.1
2023-10-12T18:07:50.365Z,16.4
2023-10-12T18:13:44.379Z,16.8
2023-10-12T18:19:36.869Z,16
2023-10-12T18:25:31.837Z,17.1
2023-10-12T18:31:24.211Z,14.9
2023-10-12T18:37:20.348Z,18
2023-10-12T18:43:13.343Z,16.4
2023-10-12T18:49:07.538Z,19.3
2023-10-12T18:55:02.259Z,16.9
2023-10-12T19:00:53.932Z,17.8
2023-10-12T19:06:46.195Z,16.8
2023-10-12T19:12:38.643Z,16.4
2023-10-12T19:18:30.211Z,15.9
2023-10-12T19:24:22.379Z,17.4
2023-10-12T19:30:14.845Z,18.1
2023-10-12T19:36:09.768Z,17.2
2023-10-12T19:42:01.512Z,16.5
2023-10-12T19:47:53.660Z,16.3
2023-10-12T19:53:45.470Z,18.9
2023-10-12T19:59:38.467Z,17.3
2023-10-12T20:05:31.620Z,17.7
2023-10-12T20:11:24.094Z,17.6
2023-10-12T20:17:16.068Z,21.1
2023-10-12T20:23:06.545Z,18.7
2023-10-12T20:28:57.530Z,16.3
2023-10-12T20:34:49.270Z,15.9
2023-10-12T20:40:43.906Z,19.5
2023-10-12T20:46:41.382Z,18.5
2023-10-12T20:52:34.612Z,17.7
2023-10-12T20:58:28.264Z,18.3
2023-10-12T21:04:21.651Z,17.4
2023-10-12T21:10:16.204Z,18.5
2023-10-12T21:16:10.889Z,16.1
2023-10-12T21:22:03.530Z,21.3
2023-10-12T21:27:58.579Z,16.3
2023-10-12T21:33:52.397Z,17.9
2023-10-12T21:39:44.878Z,14.7
2023-10-12T21:45:36.838Z,16.1
2023-10-12T21:51:31.450Z,16
2023-10-12T21:57:25.553Z,17.8
2023-10-12T22:03:18.328Z,18.8
2023-10-12T22:09:09.872Z,18.3
2023-10-12T22:15:03.423Z,19.5
2023-10-12T22:20:56.299Z,19.6
2023-10-12T22:26:48.199Z,20.8
2023-10-12T22:32:39.022Z,18.5
2023-10-12T22:38:32.194Z,20.2
2023-10-12T22:44:22.706Z,17.2
2023-10-12T22:50:14.499Z,17.8
2023-10-12T22:56:09.808Z,23.1
2023-10-12T23:02:01.047Z,21.1
2023-10-12T23:07:54.648Z,21.4
2023-10-12T23:13:46.069Z,22.8
2023-10-12T23:19:40.024Z,20.6
2023-10-12T23:25:32.802Z,19.5
2023-10-12T23:31:25.643Z,19.7
2023-10-12T23:37:19.425Z,19.4
2023-10-12T23:43:11.155Z,20.1
2023-10-12T23:49:02.944Z,22.4
2023-10-12T23:54:56.305Z,22.8
